sensor_id;sensor_type;location;lat;lon;timestamp;P1;durP1;ratioP1;P2;durP2;ratioP2
13204;SDS011;6667;52.634;9.226;2023-02-01T00:00:05;29.10;;;3.97;;
13204;SDS011;6667;52.634;9.226;2023-02-01T00:02:32;18.10;;;4.07;;
13204;SDS011;6667;52.634;9.226;2023-02-01T00:05:02;19.87;;;4.03;;
13204;SDS011;6667;52.634;9.226;2023-02-01T00:07:29;14.57;;;3.73;;
13204;SDS011;6667;52.634;9.226;2023-02-01T00:09:55;15.40;;;3.50;;
13204;SDS011;6667;52.634;9.226;2023-02-01T00:12:22;14.90;;;3.60;;
13204;SDS011;6667;52.634;9.226;2023-02-01T00:14:49;17.03;;;3.77;;
13204;SDS011;6667;52.634;9.226;2023-02-01T00:17:15;13.40;;;3.47;;
13204;SDS011;6667;52.634;9.226;2023-02-01T00:19:42;9.57;;;3.73;;
13204;SDS011;6667;52.634;9.226;2023-02-01T00:22:10;17.10;;;4.90;;
13204;SDS011;6667;52.634;9.226;2023-02-01T00:24:36;12.93;;;3.93;;
13204;SDS011;6667;52.634;9.226;2023-02-01T00:27:03;18.80;;;4.23;;
13204;SDS011;6667;52.634;9.226;2023-02-01T00:29:30;16.40;;;3.57;;
13204;SDS011;6667;52.634;9.226;2023-02-01T00:31:56;13.30;;;3.83;;
13204;SDS011;6667;52.634;9.226;2023-02-01T00:34:23;20.07;;;3.80;;
13204;SDS011;6667;52.634;9.226;2023-02-01T00:36:50;13.30;;;4.50;;
13204;SDS011;6667;52.634;9.226;2023-02-01T00:39:18;9.37;;;3.13;;
13204;SDS011;6667;52.634;9.226;2023-02-01T00:41:44;17.13;;;5.60;;
13204;SDS011;6667;52.634;9.226;2023-02-01T00:44:11;20.37;;;5.83;;
13204;SDS011;6667;52.634;9.226;2023-02-01T00:46:37;12.27;;;4.97;;
13204;SDS011;6667;52.634;9.226;2023-02-01T00:49:04;17.57;;;5.07;;
13204;SDS011;6667;52.634;9.226;2023-02-01T00:51:32;13.20;;;3.43;;
13204;SDS011;6667;52.634;9.226;2023-02-01T00:53:59;22.83;;;4.57;;
13204;SDS011;6667;52.634;9.226;2023-02-01T00:56:27;18.90;;;3.40;;
13204;SDS011;6667;52.634;9.226;2023-02-01T00:58:53;26.33;;;3.90;;
13204;SDS011;6667;52.634;9.226;2023-02-01T01:01:21;12.13;;;4.33;;
13204;SDS011;6667;52.634;9.226;2023-02-01T01:03:50;18.33;;;3.87;;
13204;SDS011;6667;52.634;9.226;2023-02-01T01:06:19;19.30;;;3.80;;
13204;SDS011;6667;52.634;9.226;2023-02-01T01:08:47;10.70;;;2.87;;
13204;SDS011;6667;52.634;9.226;2023-02-01T01:11:16;13.80;;;3.83;;
13204;SDS011;6667;52.634;9.226;2023-02-01T01:13:47;12.87;;;3.77;;
13204;SDS011;6667;52.634;9.226;2023-02-01T01:16:18;13.20;;;3.30;;
13204;SDS011;6667;52.634;9.226;2023-02-01T01:18:45;12.33;;;3.70;;
13204;SDS011;6667;52.634;9.226;2023-02-01T01:21:12;13.57;;;4.03;;
13204;SDS011;6667;52.634;9.226;2023-02-01T01:23:40;17.60;;;4.70;;
13204;SDS011;6667;52.634;9.226;2023-02-01T01:26:09;17.03;;;4.03;;
13204;SDS011;6667;52.634;9.226;2023-02-01T01:28:36;11.73;;;3.47;;
13204;SDS011;6667;52.634;9.226;2023-02-01T01:31:05;13.43;;;3.60;;
13204;SDS011;6667;52.634;9.226;2023-02-01T01:33:34;9.00;;;2.90;;
13204;SDS011;6667;52.634;9.226;2023-02-01T01:36:00;7.13;;;3.10;;
13204;SDS011;6667;52.634;9.226;2023-02-01T01:38:27;12.60;;;3.57;;
13204;SDS011;6667;52.634;9.226;2023-02-01T01:40:54;16.37;;;4.53;;
13204;SDS011;6667;52.634;9.226;2023-02-01T01:43:20;12.53;;;3.90;;
13204;SDS011;6667;52.634;9.226;2023-02-01T01:45:48;17.23;;;3.87;;
13204;SDS011;6667;52.634;9.226;2023-02-01T01:48:17;16.30;;;3.97;;
13204;SDS011;6667;52.634;9.226;2023-02-01T01:50:54;17.30;;;4.33;;
13204;SDS011;6667;52.634;9.226;2023-02-01T01:53:24;11.40;;;3.33;;
13204;SDS011;6667;52.634;9.226;2023-02-01T01:55:52;14.87;;;4.17;;
13204;SDS011;6667;52.634;9.226;2023-02-01T01:58:22;20.20;;;4.00;;
13204;SDS011;6667;52.634;9.226;2023-02-01T02:00:51;12.97;;;3.53;;
13204;SDS011;6667;52.634;9.226;2023-02-01T02:03:21;15.03;;;3.97;;
13204;SDS011;6667;52.634;9.226;2023-02-01T02:05:52;14.33;;;3.80;;
13204;SDS011;6667;52.634;9.226;2023-02-01T02:08:21;12.23;;;3.53;;
13204;SDS011;6667;52.634;9.226;2023-02-01T02:10:50;14.27;;;3.60;;
13204;SDS011;6667;52.634;9.226;2023-02-01T02:13:26;11.40;;;2.80;;
13204;SDS011;6667;52.634;9.226;2023-02-01T02:15:59;20.90;;;4.23;;
13204;SDS011;6667;52.634;9.226;2023-02-01T02:18:43;11.30;;;3.47;;
13204;SDS011;6667;52.634;9.226;2023-02-01T02:21:17;13.33;;;4.30;;
13204;SDS011;6667;52.634;9.226;2023-02-01T02:24:17;12.67;;;3.73;;
13204;SDS011;6667;52.634;9.226;2023-02-01T02:27:05;16.20;;;4.60;;
13204;SDS011;6667;52.634;9.226;2023-02-01T02:32:52;11.67;;;3.97;;
13204;SDS011;6667;52.634;9.226;2023-02-01T02:35:34;12.00;;;4.37;;
13204;SDS011;6667;52.634;9.226;2023-02-01T02:38:11;20.90;;;3.53;;
13204;SDS011;6667;52.634;9.226;2023-02-01T02:40:45;13.23;;;3.63;;
13204;SDS011;6667;52.634;9.226;2023-02-01T02:43:18;16.10;;;3.83;;
13204;SDS011;6667;52.634;9.226;2023-02-01T02:46:07;11.33;;;3.57;;
13204;SDS011;6667;52.634;9.226;2023-02-01T02:48:55;16.77;;;3.70;;
13204;SDS011;6667;52.634;9.226;2023-02-01T02:51:30;20.67;;;4.70;;
13204;SDS011;6667;52.634;9.226;2023-02-01T02:54:20;16.53;;;5.33;;
13204;SDS011;6667;52.634;9.226;2023-02-01T02:57:08;19.87;;;3.83;;
13204;SDS011;6667;52.634;9.226;2023-02-01T02:59:56;18.20;;;3.47;;
13204;SDS011;6667;52.634;9.226;2023-02-01T03:02:43;12.40;;;3.53;;
13204;SDS011;6667;52.634;9.226;2023-02-01T03:05:31;15.07;;;3.70;;
13204;SDS011;6667;52.634;9.226;2023-02-01T03:08:03;14.23;;;3.70;;
13204;SDS011;6667;52.634;9.226;2023-02-01T03:10:35;15.97;;;2.93;;
13204;SDS011;6667;52.634;9.226;2023-02-01T03:13:13;15.27;;;3.77;;
13204;SDS011;6667;52.634;9.226;2023-02-01T03:15:43;12.90;;;2.23;;
13204;SDS011;6667;52.634;9.226;2023-02-01T03:18:16;9.40;;;3.20;;
13204;SDS011;6667;52.634;9.226;2023-02-01T03:20:50;16.43;;;4.00;;
13204;SDS011;6667;52.634;9.226;2023-02-01T03:23:21;15.70;;;3.40;;
13204;SDS011;6667;52.634;9.226;2023-02-01T03:25:52;11.30;;;3.40;;
13204;SDS011;6667;52.634;9.226;2023-02-01T03:28:22;15.73;;;3.67;;
13204;SDS011;6667;52.634;9.226;2023-02-01T03:30:52;19.53;;;4.30;;
13204;SDS011;6667;52.634;9.226;2023-02-01T03:33:20;10.30;;;3.20;;
13204;SDS011;6667;52.634;9.226;2023-02-01T03:35:50;12.17;;;3.67;;
13204;SDS011;6667;52.634;9.226;2023-02-01T03:38:28;11.20;;;3.33;;
13204;SDS011;6667;52.634;9.226;2023-02-01T03:41:00;14.73;;;4.93;;
13204;SDS011;6667;52.634;9.226;2023-02-01T03:43:35;11.83;;;3.33;;
13204;SDS011;6667;52.634;9.226;2023-02-01T03:46:07;13.37;;;3.50;;
13204;SDS011;6667;52.634;9.226;2023-02-01T03:48:38;7.57;;;1.90;;
13204;SDS011;6667;52.634;9.226;2023-02-01T03:51:06;13.60;;;4.20;;
13204;SDS011;6667;52.634;9.226;2023-02-01T03:53:35;14.17;;;4.17;;
13204;SDS011;6667;52.634;9.226;2023-02-01T03:56:03;11.77;;;4.03;;
13204;SDS011;6667;52.634;9.226;2023-02-01T03:58:31;14.83;;;3.63;;
13204;SDS011;6667;52.634;9.226;2023-02-01T04:00:58;11.93;;;4.07;;
13204;SDS011;6667;52.634;9.226;2023-02-01T04:03:26;15.40;;;3.63;;
13204;SDS011;6667;52.634;9.226;2023-02-01T04:05:54;16.33;;;4.30;;
13204;SDS011;6667;52.634;9.226;2023-02-01T04:08:21;14.27;;;4.40;;
13204;SDS011;6667;52.634;9.226;2023-02-01T04:10:50;10.33;;;3.40;;
13204;SDS011;6667;52.634;9.226;2023-02-01T04:13:17;10.50;;;2.83;;
13204;SDS011;6667;52.634;9.226;2023-02-01T04:15:43;15.33;;;3.70;;
13204;SDS011;6667;52.634;9.226;2023-02-01T04:18:10;13.90;;;3.53;;
13204;SDS011;6667;52.634;9.226;2023-02-01T04:20:37;12.27;;;3.37;;
13204;SDS011;6667;52.634;9.226;2023-02-01T04:23:03;17.83;;;3.63;;
13204;SDS011;6667;52.634;9.226;2023-02-01T04:25:30;8.43;;;3.23;;
13204;SDS011;6667;52.634;9.226;2023-02-01T04:27:58;14.83;;;4.23;;
13204;SDS011;6667;52.634;9.226;2023-02-01T04:30:25;16.47;;;3.57;;
13204;SDS011;6667;52.634;9.226;2023-02-01T04:32:52;16.10;;;3.37;;
13204;SDS011;6667;52.634;9.226;2023-02-01T04:35:18;9.93;;;3.27;;
13204;SDS011;6667;52.634;9.226;2023-02-01T04:37:45;12.43;;;3.00;;
13204;SDS011;6667;52.634;9.226;2023-02-01T04:40:12;11.67;;;3.53;;
13204;SDS011;6667;52.634;9.226;2023-02-01T04:42:38;15.90;;;4.77;;
13204;SDS011;6667;52.634;9.226;2023-02-01T04:45:07;14.80;;;4.90;;
13204;SDS011;6667;52.634;9.226;2023-02-01T04:47:34;9.67;;;4.17;;
13204;SDS011;6667;52.634;9.226;2023-02-01T04:50:01;13.03;;;3.60;;
13204;SDS011;6667;52.634;9.226;2023-02-01T04:52:27;9.77;;;2.97;;
13204;SDS011;6667;52.634;9.226;2023-02-01T04:54:54;12.37;;;3.80;;
13204;SDS011;6667;52.634;9.226;2023-02-01T04:57:22;11.43;;;3.33;;
13204;SDS011;6667;52.634;9.226;2023-02-01T04:59:49;11.77;;;3.43;;
13204;SDS011;6667;52.634;9.226;2023-02-01T05:02:17;10.57;;;3.30;;
13204;SDS011;6667;52.634;9.226;2023-02-01T05:04:43;10.17;;;3.70;;
13204;SDS011;6667;52.634;9.226;2023-02-01T05:07:10;7.60;;;2.90;;
13204;SDS011;6667;52.634;9.226;2023-02-01T05:09:36;10.17;;;3.13;;
13204;SDS011;6667;52.634;9.226;2023-02-01T05:12:03;11.73;;;4.13;;
13204;SDS011;6667;52.634;9.226;2023-02-01T05:14:48;11.00;;;4.17;;
13204;SDS011;6667;52.634;9.226;2023-02-01T05:17:14;14.50;;;4.93;;
13204;SDS011;6667;52.634;9.226;2023-02-01T05:19:42;8.83;;;4.30;;
13204;SDS011;6667;52.634;9.226;2023-02-01T05:22:09;7.77;;;3.90;;
13204;SDS011;6667;52.634;9.226;2023-02-01T05:24:36;15.27;;;4.40;;
13204;SDS011;6667;52.634;9.226;2023-02-01T05:27:02;13.83;;;4.63;;
13204;SDS011;6667;52.634;9.226;2023-02-01T05:29:29;8.73;;;4.70;;
13204;SDS011;6667;52.634;9.226;2023-02-01T05:31:56;11.43;;;4.30;;
13204;SDS011;6667;52.634;9.226;2023-02-01T05:34:23;12.47;;;3.43;;
13204;SDS011;6667;52.634;9.226;2023-02-01T05:36:50;14.33;;;4.47;;
13204;SDS011;6667;52.634;9.226;2023-02-01T05:39:17;14.53;;;4.43;;
13204;SDS011;6667;52.634;9.226;2023-02-01T05:41:43;12.07;;;4.93;;
13204;SDS011;6667;52.634;9.226;2023-02-01T05:44:10;10.53;;;3.47;;
13204;SDS011;6667;52.634;9.226;2023-02-01T05:46:37;14.83;;;4.37;;
13204;SDS011;6667;52.634;9.226;2023-02-01T05:49:04;14.73;;;4.30;;
13204;SDS011;6667;52.634;9.226;2023-02-01T05:51:32;10.00;;;3.77;;
13204;SDS011;6667;52.634;9.226;2023-02-01T05:53:59;14.30;;;4.63;;
13204;SDS011;6667;52.634;9.226;2023-02-01T05:56:26;11.70;;;4.43;;
13204;SDS011;6667;52.634;9.226;2023-02-01T05:58:52;11.97;;;3.77;;
13204;SDS011;6667;52.634;9.226;2023-02-01T06:01:19;11.67;;;4.77;;
13204;SDS011;6667;52.634;9.226;2023-02-01T06:03:45;8.10;;;3.77;;
13204;SDS011;6667;52.634;9.226;2023-02-01T06:06:12;16.73;;;4.53;;
13204;SDS011;6667;52.634;9.226;2023-02-01T06:08:40;12.17;;;3.57;;
13204;SDS011;6667;52.634;9.226;2023-02-01T06:11:07;10.07;;;4.20;;
13204;SDS011;6667;52.634;9.226;2023-02-01T06:13:33;10.37;;;3.60;;
13204;SDS011;6667;52.634;9.226;2023-02-01T06:16:01;12.03;;;4.23;;
13204;SDS011;6667;52.634;9.226;2023-02-01T06:18:29;10.87;;;4.20;;
13204;SDS011;6667;52.634;9.226;2023-02-01T06:20:56;13.83;;;4.03;;
13204;SDS011;6667;52.634;9.226;2023-02-01T06:23:25;7.53;;;4.03;;
13204;SDS011;6667;52.634;9.226;2023-02-01T06:25:57;10.63;;;4.33;;
13204;SDS011;6667;52.634;9.226;2023-02-01T06:28:25;11.33;;;3.37;;
13204;SDS011;6667;52.634;9.226;2023-02-01T06:30:53;12.67;;;3.17;;
13204;SDS011;6667;52.634;9.226;2023-02-01T06:33:19;11.10;;;4.13;;
13204;SDS011;6667;52.634;9.226;2023-02-01T06:35:46;12.73;;;4.27;;
13204;SDS011;6667;52.634;9.226;2023-02-01T06:38:12;11.47;;;3.97;;
13204;SDS011;6667;52.634;9.226;2023-02-01T06:40:39;13.07;;;4.30;;
13204;SDS011;6667;52.634;9.226;2023-02-01T06:43:08;8.67;;;4.27;;
13204;SDS011;6667;52.634;9.226;2023-02-01T06:45:35;12.53;;;4.67;;
13204;SDS011;6667;52.634;9.226;2023-02-01T06:48:01;8.90;;;3.73;;
13204;SDS011;6667;52.634;9.226;2023-02-01T06:50:28;10.97;;;3.43;;
13204;SDS011;6667;52.634;9.226;2023-02-01T06:52:54;14.33;;;3.93;;
13204;SDS011;6667;52.634;9.226;2023-02-01T06:55:21;11.90;;;3.90;;
13204;SDS011;6667;52.634;9.226;2023-02-01T06:57:48;13.33;;;4.67;;
13204;SDS011;6667;52.634;9.226;2023-02-01T07:00:20;13.43;;;4.30;;
13204;SDS011;6667;52.634;9.226;2023-02-01T07:02:47;13.83;;;4.00;;
13204;SDS011;6667;52.634;9.226;2023-02-01T07:05:14;12.13;;;3.60;;
13204;SDS011;6667;52.634;9.226;2023-02-01T07:07:40;8.20;;;3.90;;
13204;SDS011;6667;52.634;9.226;2023-02-01T07:10:07;10.53;;;4.27;;
13204;SDS011;6667;52.634;9.226;2023-02-01T07:12:35;17.13;;;4.93;;
13204;SDS011;6667;52.634;9.226;2023-02-01T07:15:02;13.27;;;3.87;;
13204;SDS011;6667;52.634;9.226;2023-02-01T07:17:30;13.63;;;3.53;;
13204;SDS011;6667;52.634;9.226;2023-02-01T07:19:57;15.53;;;4.07;;
13204;SDS011;6667;52.634;9.226;2023-02-01T07:22:24;15.00;;;4.00;;
13204;SDS011;6667;52.634;9.226;2023-02-01T07:24:51;8.20;;;3.60;;
13204;SDS011;6667;52.634;9.226;2023-02-01T07:27:18;8.57;;;3.80;;
13204;SDS011;6667;52.634;9.226;2023-02-01T07:29:44;14.50;;;4.40;;
13204;SDS011;6667;52.634;9.226;2023-02-01T07:32:11;10.07;;;3.43;;
13204;SDS011;6667;52.634;9.226;2023-02-01T07:34:39;11.77;;;3.50;;
13204;SDS011;6667;52.634;9.226;2023-02-01T07:37:06;13.23;;;4.07;;
13204;SDS011;6667;52.634;9.226;2023-02-01T07:39:32;12.77;;;3.20;;
13204;SDS011;6667;52.634;9.226;2023-02-01T07:41:59;14.33;;;3.80;;
13204;SDS011;6667;52.634;9.226;2023-02-01T07:44:26;11.20;;;3.90;;
13204;SDS011;6667;52.634;9.226;2023-02-01T07:46:53;19.60;;;3.67;;
13204;SDS011;6667;52.634;9.226;2023-02-01T07:49:19;10.27;;;3.90;;
13204;SDS011;6667;52.634;9.226;2023-02-01T07:51:47;11.63;;;3.67;;
13204;SDS011;6667;52.634;9.226;2023-02-01T07:54:14;10.97;;;3.87;;
13204;SDS011;6667;52.634;9.226;2023-02-01T07:56:41;18.37;;;4.33;;
13204;SDS011;6667;52.634;9.226;2023-02-01T07:59:07;13.63;;;4.83;;
13204;SDS011;6667;52.634;9.226;2023-02-01T08:01:34;15.13;;;3.73;;
13204;SDS011;6667;52.634;9.226;2023-02-01T08:04:01;14.77;;;3.63;;
13204;SDS011;6667;52.634;9.226;2023-02-01T08:06:30;17.33;;;4.23;;
13204;SDS011;6667;52.634;9.226;2023-02-01T08:09:00;15.40;;;3.60;;
13204;SDS011;6667;52.634;9.226;2023-02-01T08:11:26;11.50;;;3.40;;
13204;SDS011;6667;52.634;9.226;2023-02-01T08:13:54;16.70;;;4.40;;
13204;SDS011;6667;52.634;9.226;2023-02-01T08:16:21;17.73;;;4.57;;
13204;SDS011;6667;52.634;9.226;2023-02-01T08:18:48;10.57;;;3.70;;
13204;SDS011;6667;52.634;9.226;2023-02-01T08:21:16;9.80;;;4.23;;
13204;SDS011;6667;52.634;9.226;2023-02-01T08:23:45;16.10;;;3.67;;
13204;SDS011;6667;52.634;9.226;2023-02-01T08:26:14;15.93;;;4.13;;
13204;SDS011;6667;52.634;9.226;2023-02-01T08:28:43;16.17;;;4.47;;
13204;SDS011;6667;52.634;9.226;2023-02-01T08:31:13;11.67;;;2.87;;
13204;SDS011;6667;52.634;9.226;2023-02-01T08:33:41;11.30;;;3.60;;
13204;SDS011;6667;52.634;9.226;2023-02-01T08:36:09;9.97;;;3.13;;
13204;SDS011;6667;52.634;9.226;2023-02-01T08:38:37;11.83;;;4.03;;
13204;SDS011;6667;52.634;9.226;2023-02-01T08:41:05;12.80;;;4.27;;
13204;SDS011;6667;52.634;9.226;2023-02-01T08:43:34;10.47;;;3.60;;
13204;SDS011;6667;52.634;9.226;2023-02-01T08:46:01;11.97;;;4.17;;
13204;SDS011;6667;52.634;9.226;2023-02-01T08:48:28;10.67;;;2.53;;
13204;SDS011;6667;52.634;9.226;2023-02-01T08:50:54;12.00;;;3.17;;
13204;SDS011;6667;52.634;9.226;2023-02-01T08:53:21;12.73;;;3.97;;
13204;SDS011;6667;52.634;9.226;2023-02-01T08:55:48;12.17;;;3.07;;
13204;SDS011;6667;52.634;9.226;2023-02-01T08:58:15;21.07;;;5.93;;
13204;SDS011;6667;52.634;9.226;2023-02-01T09:00:43;18.73;;;4.10;;
13204;SDS011;6667;52.634;9.226;2023-02-01T09:03:10;9.50;;;3.30;;
13204;SDS011;6667;52.634;9.226;2023-02-01T09:05:37;17.13;;;3.90;;
13204;SDS011;6667;52.634;9.226;2023-02-01T09:08:04;12.67;;;3.40;;
13204;SDS011;6667;52.634;9.226;2023-02-01T09:10:31;14.27;;;3.00;;
13204;SDS011;6667;52.634;9.226;2023-02-01T09:12:58;11.37;;;3.47;;
13204;SDS011;6667;52.634;9.226;2023-02-01T09:15:24;9.63;;;3.17;;
13204;SDS011;6667;52.634;9.226;2023-02-01T09:17:52;15.77;;;4.37;;
13204;SDS011;6667;52.634;9.226;2023-02-01T09:20:19;18.40;;;3.83;;
13204;SDS011;6667;52.634;9.226;2023-02-01T09:22:49;10.77;;;3.10;;
13204;SDS011;6667;52.634;9.226;2023-02-01T09:25:16;6.10;;;2.77;;
13204;SDS011;6667;52.634;9.226;2023-02-01T09:27:42;12.90;;;3.30;;
13204;SDS011;6667;52.634;9.226;2023-02-01T09:30:09;6.60;;;2.17;;
13204;SDS011;6667;52.634;9.226;2023-02-01T09:32:37;9.90;;;3.03;;
13204;SDS011;6667;52.634;9.226;2023-02-01T09:35:05;8.63;;;2.50;;
13204;SDS011;6667;52.634;9.226;2023-02-01T09:37:32;16.57;;;4.47;;
13204;SDS011;6667;52.634;9.226;2023-02-01T09:39:58;11.60;;;3.37;;
13204;SDS011;6667;52.634;9.226;2023-02-01T09:42:30;14.73;;;3.53;;
13204;SDS011;6667;52.634;9.226;2023-02-01T09:45:15;10.63;;;3.23;;
13204;SDS011;6667;52.634;9.226;2023-02-01T09:47:49;10.17;;;2.63;;
13204;SDS011;6667;52.634;9.226;2023-02-01T09:50:21;9.10;;;2.70;;
13204;SDS011;6667;52.634;9.226;2023-02-01T09:52:55;11.93;;;3.20;;
13204;SDS011;6667;52.634;9.226;2023-02-01T09:55:28;10.60;;;4.00;;
13204;SDS011;6667;52.634;9.226;2023-02-01T09:58:00;9.93;;;3.03;;
13204;SDS011;6667;52.634;9.226;2023-02-01T10:00:31;11.63;;;4.10;;
13204;SDS011;6667;52.634;9.226;2023-02-01T10:03:01;7.63;;;3.53;;
13204;SDS011;6667;52.634;9.226;2023-02-01T10:05:38;10.03;;;3.37;;
13204;SDS011;6667;52.634;9.226;2023-02-01T10:08:25;12.63;;;3.73;;
13204;SDS011;6667;52.634;9.226;2023-02-01T10:11:03;10.27;;;2.90;;
13204;SDS011;6667;52.634;9.226;2023-02-01T10:13:38;10.07;;;3.67;;
13204;SDS011;6667;52.634;9.226;2023-02-01T10:16:16;9.33;;;3.60;;
13204;SDS011;6667;52.634;9.226;2023-02-01T10:18:53;13.30;;;3.43;;
13204;SDS011;6667;52.634;9.226;2023-02-01T10:21:36;15.03;;;3.40;;
13204;SDS011;6667;52.634;9.226;2023-02-01T10:24:13;11.00;;;3.60;;
13204;SDS011;6667;52.634;9.226;2023-02-01T10:26:55;14.90;;;3.03;;
13204;SDS011;6667;52.634;9.226;2023-02-01T10:29:29;14.50;;;4.33;;
13204;SDS011;6667;52.634;9.226;2023-02-01T10:32:01;12.47;;;3.17;;
13204;SDS011;6667;52.634;9.226;2023-02-01T10:34:30;11.40;;;3.73;;
13204;SDS011;6667;52.634;9.226;2023-02-01T10:37:01;7.83;;;3.23;;
13204;SDS011;6667;52.634;9.226;2023-02-01T10:39:35;13.27;;;4.07;;
13204;SDS011;6667;52.634;9.226;2023-02-01T10:42:02;13.70;;;3.27;;
13204;SDS011;6667;52.634;9.226;2023-02-01T10:44:30;11.43;;;3.13;;
13204;SDS011;6667;52.634;9.226;2023-02-01T10:47:10;9.00;;;3.23;;
13204;SDS011;6667;52.634;9.226;2023-02-01T10:49:37;11.90;;;3.70;;
13204;SDS011;6667;52.634;9.226;2023-02-01T10:52:12;9.47;;;2.33;;
13204;SDS011;6667;52.634;9.226;2023-02-01T10:54:42;11.30;;;3.17;;
13204;SDS011;6667;52.634;9.226;2023-02-01T10:57:09;12.97;;;3.73;;
13204;SDS011;6667;52.634;9.226;2023-02-01T10:59:45;9.70;;;3.70;;
13204;SDS011;6667;52.634;9.226;2023-02-01T11:02:15;9.63;;;3.30;;
13204;SDS011;6667;52.634;9.226;2023-02-01T11:04:46;15.10;;;3.17;;
13204;SDS011;6667;52.634;9.226;2023-02-01T11:07:15;9.87;;;3.40;;
13204;SDS011;6667;52.634;9.226;2023-02-01T11:09:48;16.00;;;4.17;;
13204;SDS011;6667;52.634;9.226;2023-02-01T11:12:23;9.47;;;2.60;;
13204;SDS011;6667;52.634;9.226;2023-02-01T11:14:56;10.50;;;3.07;;
13204;SDS011;6667;52.634;9.226;2023-02-01T11:17:26;11.53;;;3.27;;
13204;SDS011;6667;52.634;9.226;2023-02-01T11:19:56;14.33;;;3.40;;
13204;SDS011;6667;52.634;9.226;2023-02-01T11:22:26;8.57;;;2.77;;
13204;SDS011;6667;52.634;9.226;2023-02-01T11:24:54;5.13;;;2.23;;
13204;SDS011;6667;52.634;9.226;2023-02-01T11:27:22;10.27;;;4.10;;
13204;SDS011;6667;52.634;9.226;2023-02-01T11:29:51;9.53;;;3.37;;
13204;SDS011;6667;52.634;9.226;2023-02-01T11:32:20;10.63;;;3.13;;
13204;SDS011;6667;52.634;9.226;2023-02-01T11:34:51;8.40;;;3.43;;
13204;SDS011;6667;52.634;9.226;2023-02-01T11:37:20;11.97;;;4.03;;
13204;SDS011;6667;52.634;9.226;2023-02-01T11:39:55;13.47;;;3.60;;
13204;SDS011;6667;52.634;9.226;2023-02-01T11:42:23;7.67;;;2.37;;
13204;SDS011;6667;52.634;9.226;2023-02-01T11:44:50;6.77;;;3.10;;
13204;SDS011;6667;52.634;9.226;2023-02-01T11:47:21;9.53;;;3.40;;
13204;SDS011;6667;52.634;9.226;2023-02-01T11:49:50;11.03;;;3.50;;
13204;SDS011;6667;52.634;9.226;2023-02-01T11:52:20;10.60;;;2.70;;
13204;SDS011;6667;52.634;9.226;2023-02-01T11:55:01;12.13;;;3.00;;
13204;SDS011;6667;52.634;9.226;2023-02-01T11:57:42;6.00;;;2.57;;
13204;SDS011;6667;52.634;9.226;2023-02-01T12:00:24;13.17;;;3.43;;
13204;SDS011;6667;52.634;9.226;2023-02-01T12:03:26;11.40;;;3.30;;
13204;SDS011;6667;52.634;9.226;2023-02-01T12:06:14;12.27;;;3.07;;
13204;SDS011;6667;52.634;9.226;2023-02-01T12:08:54;5.50;;;2.47;;
13204;SDS011;6667;52.634;9.226;2023-02-01T12:11:41;7.23;;;2.37;;
13204;SDS011;6667;52.634;9.226;2023-02-01T12:14:17;8.50;;;3.47;;
13204;SDS011;6667;52.634;9.226;2023-02-01T12:16:56;6.60;;;2.90;;
13204;SDS011;6667;52.634;9.226;2023-02-01T12:19:45;8.13;;;3.20;;
13204;SDS011;6667;52.634;9.226;2023-02-01T12:22:29;8.43;;;2.90;;
13204;SDS011;6667;52.634;9.226;2023-02-01T12:25:16;9.43;;;2.47;;
13204;SDS011;6667;52.634;9.226;2023-02-01T12:28:18;13.77;;;3.43;;
13204;SDS011;6667;52.634;9.226;2023-02-01T12:31:20;8.77;;;2.50;;
13204;SDS011;6667;52.634;9.226;2023-02-01T12:33:59;5.00;;;2.30;;
13204;SDS011;6667;52.634;9.226;2023-02-01T12:36:36;7.87;;;2.50;;
13204;SDS011;6667;52.634;9.226;2023-02-01T12:39:12;5.47;;;2.30;;
13204;SDS011;6667;52.634;9.226;2023-02-01T12:41:51;3.80;;;2.30;;
13204;SDS011;6667;52.634;9.226;2023-02-01T12:44:28;5.77;;;2.30;;
13204;SDS011;6667;52.634;9.226;2023-02-01T12:47:03;8.27;;;2.63;;
13204;SDS011;6667;52.634;9.226;2023-02-01T12:49:36;6.67;;;1.97;;
13204;SDS011;6667;52.634;9.226;2023-02-01T12:52:13;8.63;;;2.60;;
13204;SDS011;6667;52.634;9.226;2023-02-01T12:54:44;7.17;;;2.23;;
13204;SDS011;6667;52.634;9.226;2023-02-01T12:57:15;5.80;;;1.50;;
13204;SDS011;6667;52.634;9.226;2023-02-01T12:59:47;2.30;;;1.80;;
13204;SDS011;6667;52.634;9.226;2023-02-01T13:02:19;4.77;;;1.30;;
13204;SDS011;6667;52.634;9.226;2023-02-01T13:04:53;1.10;;;0.93;;
13204;SDS011;6667;52.634;9.226;2023-02-01T13:07:28;2.67;;;0.60;;
13204;SDS011;6667;52.634;9.226;2023-02-01T13:10:01;1.70;;;0.90;;
13204;SDS011;6667;52.634;9.226;2023-02-01T13:12:36;0.63;;;0.63;;
13204;SDS011;6667;52.634;9.226;2023-02-01T13:15:11;1.27;;;0.60;;
13204;SDS011;6667;52.634;9.226;2023-02-01T13:17:41;0.70;;;0.50;;
13204;SDS011;6667;52.634;9.226;2023-02-01T13:20:14;0.43;;;0.40;;
13204;SDS011;6667;52.634;9.226;2023-02-01T13:22:45;0.70;;;0.70;;
13204;SDS011;6667;52.634;9.226;2023-02-01T13:25:17;1.40;;;0.50;;
13204;SDS011;6667;52.634;9.226;2023-02-01T13:27:52;2.73;;;0.70;;
13204;SDS011;6667;52.634;9.226;2023-02-01T13:30:23;1.40;;;1.30;;
13204;SDS011;6667;52.634;9.226;2023-02-01T13:33:00;0.50;;;0.50;;
13204;SDS011;6667;52.634;9.226;2023-02-01T13:35:55;1.37;;;0.67;;
13204;SDS011;6667;52.634;9.226;2023-02-01T13:41:50;0.50;;;0.50;;
13204;SDS011;6667;52.634;9.226;2023-02-01T13:44:22;0.53;;;0.43;;
13204;SDS011;6667;52.634;9.226;2023-02-01T13:46:54;0.40;;;0.40;;
13204;SDS011;6667;52.634;9.226;2023-02-01T13:49:25;0.90;;;0.40;;
13204;SDS011;6667;52.634;9.226;2023-02-01T13:51:54;0.70;;;0.47;;
13204;SDS011;6667;52.634;9.226;2023-02-01T13:54:24;1.17;;;0.60;;
13204;SDS011;6667;52.634;9.226;2023-02-01T13:56:53;1.67;;;0.70;;
13204;SDS011;6667;52.634;9.226;2023-02-01T13:59:37;0.70;;;0.30;;
13204;SDS011;6667;52.634;9.226;2023-02-01T14:08:21;1.33;;;0.80;;
13204;SDS011;6667;52.634;9.226;2023-02-01T14:10:50;0.47;;;0.47;;
13204;SDS011;6667;52.634;9.226;2023-02-01T14:13:23;3.60;;;1.00;;
13204;SDS011;6667;52.634;9.226;2023-02-01T14:18:59;4.47;;;0.80;;
13204;SDS011;6667;52.634;9.226;2023-02-01T14:21:29;1.03;;;0.80;;
13204;SDS011;6667;52.634;9.226;2023-02-01T14:24:00;2.47;;;0.60;;
13204;SDS011;6667;52.634;9.226;2023-02-01T14:26:40;1.70;;;0.80;;
13204;SDS011;6667;52.634;9.226;2023-02-01T14:29:23;1.67;;;0.60;;
13204;SDS011;6667;52.634;9.226;2023-02-01T14:31:54;2.43;;;0.70;;
13204;SDS011;6667;52.634;9.226;2023-02-01T14:34:36;2.23;;;0.80;;
13204;SDS011;6667;52.634;9.226;2023-02-01T14:37:08;2.50;;;1.07;;
13204;SDS011;6667;52.634;9.226;2023-02-01T14:39:46;2.03;;;0.87;;
13204;SDS011;6667;52.634;9.226;2023-02-01T14:42:21;2.53;;;0.97;;
13204;SDS011;6667;52.634;9.226;2023-02-01T14:44:51;2.83;;;1.37;;
13204;SDS011;6667;52.634;9.226;2023-02-01T14:47:29;2.73;;;1.30;;
13204;SDS011;6667;52.634;9.226;2023-02-01T14:50:03;1.07;;;0.87;;
13204;SDS011;6667;52.634;9.226;2023-02-01T14:52:49;1.40;;;0.80;;
13204;SDS011;6667;52.634;9.226;2023-02-01T14:55:25;4.80;;;0.97;;
13204;SDS011;6667;52.634;9.226;2023-02-01T14:57:57;2.97;;;0.90;;
13204;SDS011;6667;52.634;9.226;2023-02-01T15:00:27;5.30;;;0.90;;
13204;SDS011;6667;52.634;9.226;2023-02-01T15:03:00;3.20;;;1.00;;
13204;SDS011;6667;52.634;9.226;2023-02-01T15:05:50;2.30;;;0.90;;
13204;SDS011;6667;52.634;9.226;2023-02-01T15:08:23;1.73;;;1.03;;
13204;SDS011;6667;52.634;9.226;2023-02-01T15:10:52;5.60;;;1.60;;
13204;SDS011;6667;52.634;9.226;2023-02-01T15:13:21;4.73;;;1.13;;
13204;SDS011;6667;52.634;9.226;2023-02-01T15:16:02;5.57;;;1.40;;
13204;SDS011;6667;52.634;9.226;2023-02-01T15:18:30;6.17;;;1.93;;
13204;SDS011;6667;52.634;9.226;2023-02-01T15:20:59;2.80;;;1.37;;
13204;SDS011;6667;52.634;9.226;2023-02-01T15:23:27;4.97;;;1.93;;
13204;SDS011;6667;52.634;9.226;2023-02-01T15:25:54;5.40;;;1.80;;
13204;SDS011;6667;52.634;9.226;2023-02-01T15:28:21;5.07;;;1.90;;
13204;SDS011;6667;52.634;9.226;2023-02-01T15:30:52;3.27;;;1.27;;